createdAt,value
2018-03-03T00:00:23.617Z,37.38
2018-03-03T00:02:50.784Z,39.47
2018-03-03T00:05:17.199Z,36.03
2018-03-03T00:07:43.609Z,36.10
2018-03-03T00:10:10.691Z,38.65
2018-03-03T00:12:38.622Z,34.53
2018-03-03T00:15:05.628Z,39.05
2018-03-03T00:17:32.076Z,36.38
2018-03-03T00:20:00.014Z,41.40
2018-03-03T00:22:38.724Z,36.22
2018-03-03T00:25:05.748Z,34.78
2018-03-03T00:27:32.169Z,36.15
2018-03-03T00:29:58.538Z,35.75
2018-03-03T00:32:24.991Z,37.22
2018-03-03T00:34:51.425Z,36.97
2018-03-03T00:37:17.844Z,39.65
2018-03-03T00:39:44.318Z,37.58
2018-03-03T00:42:10.674Z,36.67
2018-03-03T00:44:37.083Z,41.25
2018-03-03T00:47:03.543Z,37.55
2018-03-03T00:49:30.897Z,39.83
2018-03-03T00:51:57.275Z,39.15
2018-03-03T00:54:24.441Z,37.45
2018-03-03T00:56:51.591Z,35.15
2018-03-03T00:59:18.121Z,37.08
2018-03-03T01:01:44.495Z,36.13
2018-03-03T01:04:10.993Z,37.45
2018-03-03T01:06:37.416Z,37.88
2018-03-03T01:09:04.661Z,37.15
2018-03-03T01:11:31.107Z,35.92
2018-03-03T01:13:57.526Z,35.25
2018-03-03T01:16:23.918Z,38.05
2018-03-03T01:18:50.431Z,38.40
2018-03-03T01:21:17.563Z,39.97
2018-03-03T01:23:44.001Z,37.28
2018-03-03T01:26:10.389Z,36.45
2018-03-03T01:28:37.556Z,40.33
2018-03-03T01:31:04.702Z,36.40
2018-03-03T01:33:31.894Z,40.67
2018-03-03T01:35:58.367Z,39.42
2018-03-03T01:38:24.783Z,39.65
2018-03-03T01:40:51.244Z,35.95
2018-03-03T01:43:17.683Z,39.10
2018-03-03T01:45:44.832Z,40.75
2018-03-03T01:48:11.324Z,40.85
2018-03-03T01:50:37.775Z,34.58
2018-03-03T01:53:04.163Z,38.67
2018-03-03T01:55:31.400Z,37.58
2018-03-03T01:57:57.839Z,39.60
2018-03-03T02:00:25.783Z,35.15
2018-03-03T02:02:52.195Z,38.15
2018-03-03T02:05:18.648Z,38.38
2018-03-03T02:07:46.060Z,35.00
2018-03-03T02:10:12.499Z,36.38
2018-03-03T02:12:38.987Z,35.83
2018-03-03T02:15:06.222Z,40.33
2018-03-03T02:17:32.656Z,35.63
2018-03-03T02:19:59.076Z,39.10
2018-03-03T02:22:25.531Z,39.47
2018-03-03T02:24:51.940Z,38.22
2018-03-03T02:27:19.094Z,37.53
2018-03-03T02:29:45.581Z,38.90
2018-03-03T02:32:12.092Z,37.60
2018-03-03T02:34:39.224Z,36.92
2018-03-03T02:37:05.637Z,39.28
2018-03-03T02:39:32.064Z,37.45
2018-03-03T02:41:58.522Z,40.15
2018-03-03T02:44:24.955Z,38.17
2018-03-03T02:46:51.372Z,41.60
2018-03-03T02:49:17.784Z,36.92
2018-03-03T02:51:44.564Z,39.08
2018-03-03T02:54:11.010Z,39.45
2018-03-03T02:56:37.524Z,38.45
2018-03-03T02:59:04.770Z,41.55
2018-03-03T03:01:31.228Z,41.22
2018-03-03T03:03:57.881Z,41.50
2018-03-03T03:06:24.311Z,38.38
2018-03-03T03:08:50.715Z,41.85
2018-03-03T03:11:17.909Z,39.38
2018-03-03T03:13:45.095Z,42.55
2018-03-03T03:16:11.575Z,41.80
2018-03-03T03:18:37.971Z,41.88
2018-03-03T03:21:04.424Z,43.42
2018-03-03T03:23:31.133Z,44.92
2018-03-03T03:25:57.559Z,38.05
2018-03-03T03:28:23.988Z,41.05
2018-03-03T03:30:50.505Z,40.63
2018-03-03T03:33:16.945Z,41.67
2018-03-03T03:35:43.408Z,42.15
2018-03-03T03:38:09.859Z,39.80
2018-03-03T03:40:36.301Z,36.83
2018-03-03T03:43:02.779Z,37.92
2018-03-03T03:45:29.172Z,37.58
2018-03-03T03:47:55.657Z,38.95
2018-03-03T03:50:22.812Z,38.40
2018-03-03T03:52:50.003Z,38.45
2018-03-03T03:55:17.159Z,36.67
2018-03-03T03:57:44.020Z,36.78
2018-03-03T04:00:11.747Z,36.35
2018-03-03T04:02:38.260Z,37.72
2018-03-03T04:05:05.229Z,42.10
2018-03-03T04:07:31.680Z,35.03
2018-03-03T04:09:58.124Z,40.65
2018-03-03T04:12:24.603Z,36.03
2018-03-03T04:14:51.039Z,37.40
2018-03-03T04:17:17.499Z,37.92
2018-03-03T04:19:43.996Z,39.65
2018-03-03T04:22:10.451Z,37.50
2018-03-03T04:24:36.976Z,38.53
2018-03-03T04:27:03.492Z,35.10
2018-03-03T04:29:30.671Z,37.83
2018-03-03T04:31:57.216Z,37.67
2018-03-03T04:34:24.371Z,36.03
2018-03-03T04:36:50.838Z,36.70
2018-03-03T04:39:17.344Z,38.50
2018-03-03T04:41:44.492Z,37.03
2018-03-03T04:44:10.903Z,32.05
2018-03-03T04:46:37.419Z,34.63
2018-03-03T04:49:03.909Z,38.85
2018-03-03T04:51:30.342Z,34.72
2018-03-03T04:53:56.815Z,36.15
2018-03-03T04:56:23.339Z,39.22
2018-03-03T04:58:55.809Z,37.70
2018-03-03T05:01:23.414Z,35.92
2018-03-03T05:03:50.282Z,39.85
2018-03-03T05:06:18.251Z,36.50
2018-03-03T05:08:45.443Z,36.28
2018-03-03T05:11:11.901Z,38.33
2018-03-03T05:13:38.363Z,37.30
2018-03-03T05:19:28.197Z,37.20
2018-03-03T05:22:00.595Z,34.63
2018-03-03T05:24:33.199Z,34.50
2018-03-03T05:27:05.590Z,36.55
2018-03-03T05:29:38.259Z,38.33
2018-03-03T05:32:11.599Z,36.45
2018-03-03T05:34:44.955Z,36.45
2018-03-03T05:37:17.392Z,41.33
2018-03-03T05:39:50.685Z,37.90
2018-03-03T05:42:23.258Z,38.63
2018-03-03T05:48:07.389Z,35.67
2018-03-03T05:50:40.023Z,38.67
2018-03-03T05:56:13.852Z,40.15
2018-03-03T05:58:44.769Z,36.10
2018-03-03T06:01:28.453Z,38.70
2018-03-03T06:04:01.252Z,34.22
2018-03-03T06:06:34.119Z,39.00
2018-03-03T06:09:02.557Z,38.17
2018-03-03T06:11:29.617Z,39.13
2018-03-03T06:13:56.359Z,38.88
2018-03-03T06:16:24.220Z,38.10
2018-03-03T06:18:52.308Z,35.00
2018-03-03T06:21:18.933Z,38.08
2018-03-03T06:23:45.547Z,38.75
2018-03-03T06:26:12.154Z,39.28
2018-03-03T06:28:38.796Z,38.25
2018-03-03T06:31:05.886Z,40.38
2018-03-03T06:33:32.975Z,37.35
2018-03-03T06:35:59.619Z,34.90
2018-03-03T06:38:26.291Z,40.33
2018-03-03T06:40:53.753Z,40.83
2018-03-03T06:43:20.326Z,35.97
2018-03-03T06:45:47.738Z,38.00
2018-03-03T06:48:14.300Z,39.65
2018-03-03T06:50:41.163Z,38.58
2018-03-03T06:53:07.731Z,38.83
2018-03-03T06:55:34.258Z,38.10
2018-03-03T06:58:00.962Z,35.85
2018-03-03T07:00:27.588Z,35.55
2018-03-03T07:02:54.864Z,38.22
2018-03-03T07:05:22.566Z,37.92
2018-03-03T07:07:49.167Z,39.58
2018-03-03T07:10:17.011Z,34.65
2018-03-03T07:12:43.584Z,36.28
2018-03-03T07:18:06.597Z,35.75
2018-03-03T07:20:34.485Z,33.50
2018-03-03T07:23:00.968Z,36.78
2018-03-03T07:25:28.075Z,34.00
2018-03-03T07:27:54.643Z,35.38
2018-03-03T07:30:21.160Z,31.95
2018-03-03T07:32:47.732Z,34.25
2018-03-03T07:35:14.345Z,39.40
2018-03-03T07:37:40.886Z,36.72
2018-03-03T07:40:08.730Z,36.83
2018-03-03T07:42:35.503Z,39.20
2018-03-03T07:45:02.399Z,38.95
2018-03-03T07:47:30.470Z,39.72
2018-03-03T07:49:57.542Z,38.10
2018-03-03T07:52:24.163Z,36.35
2018-03-03T07:54:50.709Z,36.25
2018-03-03T07:57:17.356Z,38.63
2018-03-03T07:59:43.830Z,37.60
2018-03-03T08:02:11.371Z,38.95
2018-03-03T08:04:38.689Z,37.35
2018-03-03T08:07:05.266Z,29.85
2018-03-03T08:09:32.535Z,35.53
2018-03-03T08:11:59.231Z,37.27
2018-03-03T08:14:25.768Z,33.70
2018-03-03T08:16:53.072Z,32.95
2018-03-03T08:19:19.617Z,32.90
2018-03-03T08:21:46.203Z,32.97
2018-03-03T08:24:13.075Z,31.20
2018-03-03T08:26:39.552Z,32.40
2018-03-03T08:29:06.296Z,32.87
2018-03-03T08:31:32.864Z,33.13
2018-03-03T08:33:59.774Z,33.20
2018-03-03T08:36:26.472Z,30.63
2018-03-03T08:38:52.994Z,33.00
2018-03-03T08:41:19.586Z,36.10
2018-03-03T08:43:46.084Z,34.90
2018-03-03T08:46:12.682Z,33.37
2018-03-03T08:48:39.120Z,32.00
2018-03-03T08:51:05.950Z,35.77
2018-03-03T08:53:33.491Z,33.43
2018-03-03T08:56:00.770Z,36.57
2018-03-03T08:58:27.450Z,40.70
2018-03-03T09:00:54.041Z,36.73
2018-03-03T09:03:20.785Z,36.13
2018-03-03T09:05:48.181Z,34.80
2018-03-03T09:08:15.827Z,36.83
2018-03-03T09:10:42.494Z,36.67
2018-03-03T09:13:09.063Z,37.57
2018-03-03T09:15:35.592Z,34.17
2018-03-03T09:18:02.160Z,34.70
2018-03-03T09:20:29.758Z,36.07
2018-03-03T09:22:56.431Z,36.27
2018-03-03T09:25:23.171Z,35.27
2018-03-03T09:27:49.848Z,35.57
2018-03-03T09:30:16.582Z,34.27
2018-03-03T09:32:44.071Z,35.70
2018-03-03T09:35:10.654Z,34.60
2018-03-03T09:37:37.231Z,35.03
2018-03-03T09:40:04.456Z,36.57
2018-03-03T09:42:31.054Z,35.17
2018-03-03T09:44:58.532Z,33.23
2018-03-03T09:47:25.166Z,34.40
2018-03-03T09:49:52.748Z,36.47
2018-03-03T09:52:19.432Z,34.00
2018-03-03T09:54:46.007Z,35.63
2018-03-03T09:57:12.570Z,35.23
2018-03-03T09:59:39.140Z,36.57
2018-03-03T10:02:06.293Z,34.87
2018-03-03T10:04:32.335Z,36.10
2018-03-03T10:06:58.891Z,34.30
2018-03-03T10:09:25.606Z,37.37
2018-03-03T10:11:52.134Z,36.37
2018-03-03T10:14:19.226Z,41.60
2018-03-03T10:16:45.968Z,40.93
2018-03-03T10:19:12.659Z,39.40
2018-03-03T10:21:39.205Z,39.43
2018-03-03T10:24:05.749Z,36.27
2018-03-03T10:26:33.028Z,37.33
2018-03-03T10:28:59.703Z,40.10
2018-03-03T10:31:26.168Z,38.83
2018-03-03T10:33:52.712Z,37.97
2018-03-03T10:36:19.979Z,37.40
2018-03-03T10:38:46.656Z,36.17
2018-03-03T10:41:13.876Z,37.40
2018-03-03T10:43:40.435Z,37.30
2018-03-03T10:46:06.885Z,36.83
2018-03-03T10:48:33.544Z,36.27
2018-03-03T10:51:00.103Z,36.77
2018-03-03T10:53:28.260Z,39.63
2018-03-03T10:55:55.163Z,39.10
2018-03-03T10:58:22.394Z,37.60
2018-03-03T11:00:49.411Z,34.57
2018-03-03T11:03:15.906Z,33.90
2018-03-03T11:05:42.487Z,36.90
2018-03-03T11:08:09.085Z,34.70
2018-03-03T11:10:36.722Z,34.97
2018-03-03T11:13:03.266Z,35.93
2018-03-03T11:15:29.914Z,32.00
2018-03-03T11:17:56.587Z,35.37
2018-03-03T11:20:23.048Z,37.90
2018-03-03T11:22:50.884Z,39.17
2018-03-03T11:25:18.884Z,42.87
2018-03-03T11:27:45.597Z,39.30
2018-03-03T11:30:12.191Z,42.33
2018-03-03T11:32:38.782Z,42.00
2018-03-03T11:35:05.932Z,41.43
2018-03-03T11:37:33.888Z,42.73
2018-03-03T11:40:00.448Z,37.60
2018-03-03T11:42:26.937Z,40.53
2018-03-03T11:44:53.518Z,41.33
2018-03-03T11:47:20.011Z,34.60
2018-03-03T11:49:47.220Z,36.63
2018-03-03T11:52:15.484Z,37.77
2018-03-03T11:54:41.882Z,40.00
2018-03-03T11:57:08.534Z,36.13
2018-03-03T11:59:36.022Z,41.13
2018-03-03T12:02:02.632Z,36.20
2018-03-03T12:04:29.123Z,39.13
2018-03-03T12:06:55.790Z,33.43
2018-03-03T12:09:23.019Z,37.90
2018-03-03T12:11:49.497Z,36.80
2018-03-03T12:14:16.185Z,36.17
2018-03-03T12:16:42.760Z,36.03
2018-03-03T12:19:09.233Z,36.50
2018-03-03T12:21:35.974Z,36.20
2018-03-03T12:24:03.164Z,36.13
2018-03-03T12:26:29.664Z,37.00
2018-03-03T12:28:56.826Z,35.90
2018-03-03T12:31:23.376Z,37.97
2018-03-03T12:33:50.669Z,34.10
2018-03-03T12:36:17.189Z,36.90
2018-03-03T12:38:44.528Z,34.00
2018-03-03T12:41:11.633Z,33.23
2018-03-03T12:43:39.676Z,37.73
2018-03-03T12:46:06.340Z,37.13
2018-03-03T12:48:32.957Z,37.50
2018-03-03T12:51:00.275Z,33.87
2018-03-03T12:53:26.798Z,33.30
2018-03-03T12:55:53.397Z,35.03
2018-03-03T12:58:19.895Z,35.23
2018-03-03T13:00:47.192Z,35.30
2018-03-03T13:03:13.713Z,34.20
2018-03-03T13:05:41.603Z,35.83
2018-03-03T13:08:09.359Z,33.17
2018-03-03T13:10:36.763Z,32.60
2018-03-03T13:13:03.262Z,32.97
2018-03-03T13:15:29.732Z,32.87
2018-03-03T13:17:57.779Z,31.60
2018-03-03T13:20:24.232Z,35.40
2018-03-03T13:22:50.718Z,33.13
2018-03-03T13:25:17.232Z,33.23
2018-03-03T13:27:44.675Z,30.40
2018-03-03T13:30:12.687Z,32.87
2018-03-03T13:32:39.335Z,34.90
2018-03-03T13:35:06.340Z,34.53
2018-03-03T13:37:32.810Z,32.97
2018-03-03T13:39:59.407Z,32.30
2018-03-03T13:42:25.843Z,33.20
2018-03-03T13:44:52.390Z,35.80
2018-03-03T13:47:19.471Z,33.10
2018-03-03T13:49:45.984Z,33.87
2018-03-03T13:52:12.575Z,34.07
2018-03-03T13:54:39.123Z,37.10
2018-03-03T13:57:05.595Z,36.27
2018-03-03T13:59:32.836Z,35.77
2018-03-03T14:01:59.328Z,40.00
2018-03-03T14:04:26.637Z,36.73
2018-03-03T14:06:53.071Z,38.30
2018-03-03T14:09:19.586Z,38.57
2018-03-03T14:11:46.066Z,40.93
2018-03-03T14:14:12.637Z,39.90
2018-03-03T14:16:39.267Z,37.93
2018-03-03T14:19:05.960Z,38.10
2018-03-03T14:21:32.539Z,37.87
2018-03-03T14:23:59.129Z,38.63
2018-03-03T14:26:26.436Z,36.13
2018-03-03T14:28:52.946Z,37.43
2018-03-03T14:31:19.457Z,38.17
2018-03-03T14:33:46.126Z,38.27
2018-03-03T14:36:12.722Z,37.80
2018-03-03T14:38:39.309Z,37.27
2018-03-03T14:41:05.874Z,37.07
2018-03-03T14:43:32.416Z,38.33
2018-03-03T14:45:59.075Z,38.03
2018-03-03T14:48:25.759Z,38.50
2018-03-03T14:50:52.302Z,38.00
2018-03-03T14:53:19.843Z,40.07
2018-03-03T14:55:46.355Z,36.13
2018-03-03T14:58:13.047Z,38.47
2018-03-03T15:00:41.047Z,37.83
2018-03-03T15:03:07.682Z,34.23
2018-03-03T15:05:34.160Z,36.30
2018-03-03T15:08:00.772Z,36.30
2018-03-03T15:10:28.339Z,36.93
2018-03-03T15:12:54.839Z,36.90
2018-03-03T15:15:21.420Z,35.67
2018-03-03T15:17:47.883Z,38.53
2018-03-03T15:20:14.569Z,36.30
2018-03-03T15:22:41.832Z,39.07
2018-03-03T15:25:08.499Z,36.53
2018-03-03T15:27:35.018Z,34.57
2018-03-03T15:30:01.496Z,35.60
2018-03-03T15:32:28.334Z,36.33
2018-03-03T15:34:54.899Z,37.20
2018-03-03T15:37:21.419Z,34.37
2018-03-03T15:39:48.125Z,36.23
2018-03-03T15:42:15.398Z,34.17
2018-03-03T15:44:42.708Z,38.27
2018-03-03T15:47:09.246Z,36.50
2018-03-03T15:49:36.592Z,32.50
2018-03-03T15:52:03.857Z,36.20
2018-03-03T15:54:31.160Z,35.50
2018-03-03T15:56:57.880Z,35.37
2018-03-03T15:59:24.410Z,36.47
2018-03-03T16:01:51.048Z,31.37
2018-03-03T16:04:17.534Z,35.23
2018-03-03T16:06:45.812Z,34.37
2018-03-03T16:09:18.869Z,36.60
2018-03-03T16:11:45.379Z,38.30
2018-03-03T16:14:11.893Z,37.13
2018-03-03T16:16:39.508Z,37.27
2018-03-03T16:19:06.011Z,35.17
2018-03-03T16:21:33.628Z,36.60
2018-03-03T16:24:00.238Z,36.30
2018-03-03T16:26:28.390Z,34.90
2018-03-03T16:28:54.915Z,37.37
2018-03-03T16:31:21.666Z,36.50
2018-03-03T16:33:48.683Z,35.20
2018-03-03T16:36:15.192Z,35.00
2018-03-03T16:38:42.804Z,35.00
2018-03-03T16:41:09.330Z,34.63
2018-03-03T16:43:35.943Z,36.13
2018-03-03T16:46:02.434Z,34.00
2018-03-03T16:48:29.137Z,33.53
2018-03-03T16:50:55.639Z,34.77
2018-03-03T16:53:22.209Z,36.60
2018-03-03T16:55:48.990Z,36.93
2018-03-03T16:58:15.892Z,38.80
2018-03-03T17:00:42.350Z,36.60
2018-03-03T17:03:09.042Z,34.73
2018-03-03T17:05:35.483Z,36.83
2018-03-03T17:08:02.016Z,34.60
2018-03-03T17:10:28.483Z,35.77
2018-03-03T17:12:54.915Z,36.87
2018-03-03T17:15:21.420Z,38.10
2018-03-03T17:17:47.886Z,37.53
2018-03-03T17:20:14.438Z,36.27
2018-03-03T17:22:40.975Z,37.67
2018-03-03T17:25:08.075Z,38.00
2018-03-03T17:27:34.839Z,34.37
2018-03-03T17:30:01.846Z,41.97
2018-03-03T17:32:28.502Z,38.30
2018-03-03T17:34:55.099Z,37.37
2018-03-03T17:37:21.759Z,37.27
2018-03-03T17:39:49.184Z,39.40
2018-03-03T17:42:16.158Z,36.77
2018-03-03T17:44:42.648Z,37.67
2018-03-03T17:47:09.346Z,37.03
2018-03-03T17:49:35.931Z,38.10
2018-03-03T17:52:02.440Z,38.10
2018-03-03T17:54:28.974Z,39.83
2018-03-03T17:56:55.402Z,36.43
2018-03-03T17:59:21.857Z,39.70
2018-03-03T18:01:48.292Z,39.93
2018-03-03T18:04:14.996Z,39.03
2018-03-03T18:06:42.245Z,37.72
2018-03-03T18:09:09.422Z,38.28
2018-03-03T18:11:36.679Z,40.80
2018-03-03T18:14:03.187Z,40.03
2018-03-03T18:16:29.696Z,37.83
2018-03-03T18:18:56.201Z,37.78
2018-03-03T18:21:22.671Z,40.33
2018-03-03T18:23:49.163Z,38.47
2018-03-03T18:26:15.604Z,34.97
2018-03-03T18:28:42.348Z,31.03
2018-03-03T18:31:08.816Z,23.27
2018-03-03T18:33:35.285Z,28.40
2018-03-03T18:36:01.834Z,28.50
2018-03-03T18:38:28.266Z,26.33
2018-03-03T18:40:54.703Z,25.83
2018-03-03T18:43:21.784Z,23.17
2018-03-03T18:45:48.359Z,27.50
2018-03-03T18:48:14.809Z,27.57
2018-03-03T18:50:41.424Z,25.25
2018-03-03T18:53:08.852Z,22.17
2018-03-03T18:55:35.296Z,27.33
2018-03-03T18:58:01.766Z,29.02
2018-03-03T19:00:28.294Z,27.27
2018-03-03T19:02:55.050Z,28.87
2018-03-03T19:05:21.579Z,29.02
2018-03-03T19:07:47.981Z,29.85
2018-03-03T19:10:14.440Z,28.73
2018-03-03T19:12:40.910Z,28.90
2018-03-03T19:15:07.394Z,29.15
2018-03-03T19:17:34.760Z,31.75
2018-03-03T19:20:01.239Z,29.77
2018-03-03T19:22:27.838Z,29.45
2018-03-03T19:24:54.291Z,29.52
2018-03-03T19:27:20.694Z,29.23
2018-03-03T19:29:47.158Z,27.50
2018-03-03T19:32:14.398Z,31.40
2018-03-03T19:34:41.091Z,32.38
2018-03-03T19:37:08.335Z,32.80
2018-03-03T19:39:34.775Z,33.00
2018-03-03T19:42:01.976Z,31.83
2018-03-03T19:44:28.484Z,31.97
2018-03-03T19:46:54.908Z,33.20
2018-03-03T19:49:21.336Z,29.53
2018-03-03T19:51:47.906Z,29.67
2018-03-03T19:54:14.302Z,29.73
2018-03-03T19:56:41.455Z,30.20
2018-03-03T19:59:07.896Z,33.77
2018-03-03T20:01:34.431Z,34.25
2018-03-03T20:04:00.983Z,35.83
2018-03-03T20:06:27.502Z,31.97
2018-03-03T20:08:54.784Z,33.80
2018-03-03T20:11:22.224Z,31.80
2018-03-03T20:13:48.705Z,28.17
2018-03-03T20:16:15.859Z,31.90
2018-03-03T20:18:42.295Z,33.65
2018-03-03T20:21:09.479Z,31.98
2018-03-03T20:23:36.691Z,33.60
2018-03-03T20:26:03.210Z,31.90
2018-03-03T20:28:29.648Z,33.47
2018-03-03T20:30:56.176Z,29.83
2018-03-03T20:33:23.378Z,32.00
2018-03-03T20:35:50.064Z,33.40
2018-03-03T20:38:16.511Z,30.52
2018-03-03T20:40:42.924Z,33.08
2018-03-03T20:43:09.375Z,31.70
2018-03-03T20:45:35.789Z,26.60
2018-03-03T20:48:02.316Z,31.40
2018-03-03T20:50:28.887Z,28.38
2018-03-03T20:52:55.368Z,32.35
2018-03-03T20:55:21.908Z,31.60
2018-03-03T20:57:48.401Z,30.83
2018-03-03T21:00:15.648Z,32.95
2018-03-03T21:02:42.223Z,32.97
2018-03-03T21:05:09.838Z,34.10
2018-03-03T21:07:37.135Z,29.40
2018-03-03T21:10:04.390Z,30.80
2018-03-03T21:12:32.395Z,32.97
2018-03-03T21:14:59.704Z,26.05
2018-03-03T21:17:26.168Z,31.92
2018-03-03T21:19:52.673Z,32.07
2018-03-03T21:22:19.166Z,33.00
2018-03-03T21:24:45.616Z,33.22
2018-03-03T21:27:12.121Z,32.87
2018-03-03T21:29:38.689Z,31.27
2018-03-03T21:32:05.953Z,33.97
2018-03-03T21:34:32.357Z,32.57
2018-03-03T21:36:58.806Z,31.53
2018-03-03T21:39:25.302Z,34.27
2018-03-03T21:41:51.730Z,35.70
2018-03-03T21:44:18.979Z,34.38
2018-03-03T21:46:45.428Z,33.10
2018-03-03T21:49:11.891Z,38.67
2018-03-03T21:51:38.320Z,32.97
2018-03-03T21:54:04.779Z,34.67
2018-03-03T21:56:31.197Z,36.87
2018-03-03T21:58:57.615Z,34.23
2018-03-03T22:01:24.093Z,33.07
2018-03-03T22:03:50.644Z,34.20
2018-03-03T22:06:17.084Z,35.30
2018-03-03T22:08:43.469Z,32.57
2018-03-03T22:11:10.712Z,35.27
2018-03-03T22:13:37.883Z,33.50
2018-03-03T22:16:05.085Z,33.80
2018-03-03T22:18:31.595Z,33.77
2018-03-03T22:20:58.788Z,32.63
2018-03-03T22:23:25.260Z,29.85
2018-03-03T22:25:51.703Z,28.90
2018-03-03T22:28:18.134Z,29.55
2018-03-03T22:30:44.593Z,35.90
2018-03-03T22:33:11.055Z,29.27
2018-03-03T22:35:37.564Z,34.43
2018-03-03T22:38:04.025Z,38.90
2018-03-03T22:40:30.446Z,35.67
2018-03-03T22:42:56.875Z,30.10
2018-03-03T22:45:23.338Z,35.03
2018-03-03T22:47:49.780Z,33.27
2018-03-03T22:50:16.213Z,31.13
2018-03-03T22:52:42.637Z,33.67
2018-03-03T22:55:09.097Z,33.33
2018-03-03T22:57:35.568Z,33.80
2018-03-03T23:00:02.127Z,31.50
2018-03-03T23:02:28.672Z,33.67
2018-03-03T23:04:55.100Z,33.50
2018-03-03T23:07:23.051Z,35.07
2018-03-03T23:09:49.556Z,33.97
2018-03-03T23:12:16.007Z,37.17
2018-03-03T23:14:43.217Z,36.87
2018-03-03T23:17:09.662Z,38.33
2018-03-03T23:19:36.115Z,32.17
2018-03-03T23:22:02.739Z,33.90
2018-03-03T23:24:29.253Z,36.80
2018-03-03T23:26:56.383Z,35.53
2018-03-03T23:29:22.847Z,35.10
2018-03-03T23:31:49.235Z,39.47
2018-03-03T23:34:16.394Z,34.80
2018-03-03T23:36:42.808Z,32.37
2018-03-03T23:39:09.983Z,34.40
2018-03-03T23:41:37.175Z,36.20
2018-03-03T23:44:03.644Z,32.87
2018-03-03T23:46:30.108Z,32.10
2018-03-03T23:48:56.577Z,36.20
2018-03-03T23:51:23.732Z,35.90
2018-03-03T23:53:50.242Z,35.70
2018-03-03T23:56:16.679Z,36.67
2018-03-03T23:58:43.907Z,34.87
